createdAt,value
2022-11-29T00:00:21.962Z,1011.36
2022-11-29T00:01:21.955Z,1011.34
2022-11-29T00:02:22.045Z,1011.31
2022-11-29T00:03:21.972Z,1011.37
2022-11-29T00:04:21.919Z,1011.34
2022-11-29T00:05:21.908Z,1011.41
2022-11-29T00:06:21.856Z,1011.37
2022-11-29T00:07:21.974Z,1011.41
2022-11-29T00:08:21.880Z,1011.49
2022-11-29T00:09:21.838Z,1011.45
2022-11-29T00:10:21.826Z,1011.46
2022-11-29T00:11:21.802Z,1011.47
2022-11-29T00:12:21.780Z,1011.45
2022-11-29T00:13:21.825Z,1011.45
2022-11-29T00:14:21.783Z,1011.44
2022-11-29T00:15:21.776Z,1011.36
2022-11-29T00:16:21.808Z,1011.43
2022-11-29T00:17:21.726Z,1011.45
2022-11-29T00:18:21.697Z,1011.45
2022-11-29T00:19:21.763Z,1011.45
2022-11-29T00:20:21.672Z,1011.44
2022-11-29T00:21:21.697Z,1011.45
2022-11-29T00:22:21.648Z,1011.48
2022-11-29T00:23:21.666Z,1011.42
2022-11-29T00:24:21.651Z,1011.46
2022-11-29T00:25:21.634Z,1011.43
2022-11-29T00:26:21.641Z,1011.41
2022-11-29T00:27:21.622Z,1011.40
2022-11-29T00:28:21.613Z,1011.43
2022-11-29T00:29:21.623Z,1011.39
2022-11-29T00:30:21.573Z,1011.43
2022-11-29T00:31:21.571Z,1011.43
2022-11-29T00:32:21.526Z,1011.46
2022-11-29T00:33:21.563Z,1011.47
2022-11-29T00:34:21.532Z,1011.42
2022-11-29T00:35:21.493Z,1011.45
2022-11-29T00:36:21.470Z,1011.48
2022-11-29T00:37:21.498Z,1011.46
2022-11-29T00:38:21.492Z,1011.48
2022-11-29T00:39:21.492Z,1011.44
2022-11-29T00:40:21.481Z,1011.42
2022-11-29T00:41:21.456Z,1011.51
2022-11-29T00:42:21.391Z,1011.45
2022-11-29T00:43:21.419Z,1011.53
2022-11-29T00:44:21.402Z,1011.46
2022-11-29T00:45:21.376Z,1011.49
2022-11-29T00:46:21.391Z,1011.46
2022-11-29T00:47:21.380Z,1011.51
2022-11-29T00:48:21.325Z,1011.54
2022-11-29T00:49:21.323Z,1011.53
2022-11-29T00:50:21.294Z,1011.49
2022-11-29T00:51:21.316Z,1011.50
2022-11-29T00:52:21.261Z,1011.52
2022-11-29T00:53:21.299Z,1011.51
2022-11-29T00:54:21.550Z,1011.49
2022-11-29T00:55:21.266Z,1011.49
2022-11-29T00:56:21.272Z,1011.49
2022-11-29T00:57:21.211Z,1011.45
2022-11-29T00:58:21.212Z,1011.49
2022-11-29T00:59:21.200Z,1011.45
2022-11-29T01:00:21.161Z,1011.40
2022-11-29T01:01:21.207Z,1011.41
2022-11-29T01:02:21.233Z,1011.49
2022-11-29T01:03:21.166Z,1011.48
2022-11-29T01:04:21.126Z,1011.47
2022-11-29T01:05:21.140Z,1011.49
2022-11-29T01:06:21.118Z,1011.49
2022-11-29T01:07:21.148Z,1011.46
2022-11-29T01:08:21.060Z,1011.42
2022-11-29T01:09:21.079Z,1011.47
2022-11-29T01:10:21.030Z,1011.49
2022-11-29T01:11:21.058Z,1011.51
2022-11-29T01:12:21.031Z,1011.44
2022-11-29T01:13:21.017Z,1011.44
2022-11-29T01:14:21.047Z,1011.45
2022-11-29T01:15:21.031Z,1011.46
2022-11-29T01:16:21.042Z,1011.46
2022-11-29T01:17:20.988Z,1011.50
2022-11-29T01:18:20.941Z,1011.50
2022-11-29T01:19:21.016Z,1011.47
2022-11-29T01:20:20.948Z,1011.45
2022-11-29T01:21:20.907Z,1011.53
2022-11-29T01:22:20.905Z,1011.49
2022-11-29T01:23:20.880Z,1011.48
2022-11-29T01:24:20.855Z,1011.48
2022-11-29T01:25:20.893Z,1011.45
2022-11-29T01:26:20.849Z,1011.45
2022-11-29T01:27:20.826Z,1011.54
2022-11-29T01:28:20.840Z,1011.51
2022-11-29T01:29:20.817Z,1011.50
2022-11-29T01:30:20.845Z,1011.45
2022-11-29T01:31:20.777Z,1011.51
2022-11-29T01:32:20.746Z,1011.56
2022-11-29T01:33:20.746Z,1011.51
2022-11-29T01:34:20.753Z,1011.52
2022-11-29T01:35:20.745Z,1011.50
2022-11-29T01:36:20.697Z,1011.51
2022-11-29T01:37:20.726Z,1011.51
2022-11-29T01:38:20.701Z,1011.54
2022-11-29T01:39:20.674Z,1011.54
2022-11-29T01:40:20.690Z,1011.51
2022-11-29T01:41:20.672Z,1011.57
2022-11-29T01:42:20.642Z,1011.55
2022-11-29T01:43:20.647Z,1011.55
2022-11-29T01:44:20.630Z,1011.51
2022-11-29T01:45:20.625Z,1011.59
2022-11-29T01:46:20.663Z,1011.58
2022-11-29T01:47:20.582Z,1011.57
2022-11-29T01:48:20.570Z,1011.58
2022-11-29T01:49:20.553Z,1011.61
2022-11-29T01:50:20.541Z,1011.61
2022-11-29T01:51:20.549Z,1011.61
2022-11-29T01:52:20.495Z,1011.69
2022-11-29T01:53:20.548Z,1011.68
2022-11-29T01:54:20.474Z,1011.68
2022-11-29T01:55:20.484Z,1011.69
2022-11-29T01:56:20.499Z,1011.69
2022-11-29T01:57:20.472Z,1011.65
2022-11-29T01:58:20.419Z,1011.67
2022-11-29T01:59:20.418Z,1011.67
2022-11-29T02:00:20.411Z,1011.70
2022-11-29T02:01:20.495Z,1011.68
2022-11-29T02:02:20.392Z,1011.72
2022-11-29T02:03:20.361Z,1011.73
2022-11-29T02:04:20.344Z,1011.70
2022-11-29T02:05:20.383Z,1011.69
2022-11-29T02:06:20.310Z,1011.72
2022-11-29T02:07:20.367Z,1011.74
2022-11-29T02:08:20.317Z,1011.70
2022-11-29T02:09:20.291Z,1011.71
2022-11-29T02:10:20.306Z,1011.69
2022-11-29T02:11:20.296Z,1011.65
2022-11-29T02:12:20.265Z,1011.69
2022-11-29T02:13:20.236Z,1011.68
2022-11-29T02:14:20.236Z,1011.70
2022-11-29T02:15:20.228Z,1011.67
2022-11-29T02:16:20.246Z,1011.68
2022-11-29T02:17:20.217Z,1011.72
2022-11-29T02:18:20.178Z,1011.70
2022-11-29T02:19:20.187Z,1011.73
2022-11-29T02:20:20.174Z,1011.71
2022-11-29T02:21:20.164Z,1011.75
2022-11-29T02:22:20.136Z,1011.75
2022-11-29T02:23:20.137Z,1011.73
2022-11-29T02:24:20.114Z,1011.73
2022-11-29T02:25:20.096Z,1011.76
2022-11-29T02:26:20.056Z,1011.72
2022-11-29T02:27:20.090Z,1011.77
2022-11-29T02:28:20.074Z,1011.76
2022-11-29T02:29:20.062Z,1011.75
2022-11-29T02:30:20.043Z,1011.75
2022-11-29T02:31:20.056Z,1011.78
2022-11-29T02:32:20.029Z,1011.76
2022-11-29T02:33:19.984Z,1011.75
2022-11-29T02:34:20.011Z,1011.82
2022-11-29T02:35:19.986Z,1011.82
2022-11-29T02:36:19.943Z,1011.78
2022-11-29T02:37:19.919Z,1011.84
2022-11-29T02:38:19.932Z,1011.81
2022-11-29T02:39:19.891Z,1011.85
2022-11-29T02:40:19.917Z,1011.88
2022-11-29T02:41:19.891Z,1011.86
2022-11-29T02:42:19.873Z,1011.83
2022-11-29T02:43:19.873Z,1011.87
2022-11-29T02:44:19.833Z,1011.82
2022-11-29T02:45:19.843Z,1011.78
2022-11-29T02:46:19.853Z,1011.83
2022-11-29T02:47:19.828Z,1011.85
2022-11-29T02:48:19.782Z,1011.80
2022-11-29T02:49:26.881Z,1011.76
2022-11-29T02:50:20.055Z,1011.78
2022-11-29T02:51:27.321Z,1011.81
2022-11-29T02:52:19.790Z,1011.82
2022-11-29T02:53:19.765Z,1011.81
2022-11-29T02:54:19.781Z,1011.87
2022-11-29T02:55:19.704Z,1011.83
2022-11-29T02:56:19.735Z,1011.89
2022-11-29T02:57:19.691Z,1011.88
2022-11-29T02:58:19.706Z,1011.91
2022-11-29T02:59:19.694Z,1011.90
2022-11-29T03:00:19.648Z,1011.93
2022-11-29T03:01:19.668Z,1011.89
2022-11-29T03:02:19.655Z,1011.96
2022-11-29T03:03:19.605Z,1011.87
2022-11-29T03:04:19.656Z,1011.91
2022-11-29T03:05:19.583Z,1011.94
2022-11-29T03:06:19.600Z,1011.91
2022-11-29T03:07:19.593Z,1011.94
2022-11-29T03:08:19.544Z,1011.91
2022-11-29T03:09:19.542Z,1011.94
2022-11-29T03:10:19.506Z,1011.92
2022-11-29T03:11:19.512Z,1011.95
2022-11-29T03:12:19.532Z,1011.91
2022-11-29T03:13:19.455Z,1011.95
2022-11-29T03:14:19.475Z,1012.00
2022-11-29T03:15:19.471Z,1011.92
2022-11-29T03:16:19.424Z,1011.96
2022-11-29T03:17:19.413Z,1011.96
2022-11-29T03:18:19.436Z,1011.93
2022-11-29T03:19:19.441Z,1012.08
2022-11-29T03:20:19.382Z,1011.98
2022-11-29T03:21:19.412Z,1012.02
2022-11-29T03:22:19.379Z,1011.98
2022-11-29T03:23:19.344Z,1012.03
2022-11-29T03:24:19.369Z,1011.96
2022-11-29T03:25:19.316Z,1012.01
2022-11-29T03:26:19.304Z,1012.05
2022-11-29T03:27:19.295Z,1012.07
2022-11-29T03:28:19.304Z,1012.07
2022-11-29T03:29:19.281Z,1012.10
2022-11-29T03:30:19.263Z,1012.03
2022-11-29T03:31:19.422Z,1012.08
2022-11-29T03:32:19.260Z,1012.10
2022-11-29T03:33:19.219Z,1012.12
2022-11-29T03:34:19.233Z,1012.13
2022-11-29T03:35:19.217Z,1012.13
2022-11-29T03:36:19.190Z,1012.17
2022-11-29T03:37:19.199Z,1012.17
2022-11-29T03:38:19.177Z,1012.14
2022-11-29T03:39:19.148Z,1012.12
2022-11-29T03:40:19.120Z,1012.16
2022-11-29T03:41:19.140Z,1012.18
2022-11-29T03:42:19.145Z,1012.13
2022-11-29T03:43:19.068Z,1012.11
2022-11-29T03:44:19.137Z,1012.16
2022-11-29T03:45:19.050Z,1012.16
2022-11-29T03:46:19.105Z,1012.26
2022-11-29T03:47:19.037Z,1012.17
2022-11-29T03:48:19.055Z,1012.18
2022-11-29T03:49:19.035Z,1012.21
2022-11-29T03:50:18.991Z,1012.26
2022-11-29T03:51:18.978Z,1012.25
2022-11-29T03:52:18.988Z,1012.20
2022-11-29T03:53:18.988Z,1012.26
2022-11-29T03:54:18.968Z,1012.23
2022-11-29T03:55:18.927Z,1012.22
2022-11-29T03:56:18.906Z,1012.24
2022-11-29T03:57:18.914Z,1012.20
2022-11-29T03:58:18.887Z,1012.27
2022-11-29T03:59:18.887Z,1012.26
2022-11-29T04:00:18.892Z,1012.28
2022-11-29T04:01:18.929Z,1012.25
2022-11-29T04:02:18.898Z,1012.25
2022-11-29T04:03:18.874Z,1012.30
2022-11-29T04:04:18.851Z,1012.33
2022-11-29T04:05:18.823Z,1012.31
2022-11-29T04:06:18.776Z,1012.35
2022-11-29T04:07:18.832Z,1012.38
2022-11-29T04:08:18.751Z,1012.37
2022-11-29T04:09:18.782Z,1012.35
2022-11-29T04:10:18.757Z,1012.34
2022-11-29T04:11:18.717Z,1012.34
2022-11-29T04:12:18.706Z,1012.34
2022-11-29T04:13:18.721Z,1012.36
2022-11-29T04:14:18.724Z,1012.36
2022-11-29T04:15:18.721Z,1012.35
2022-11-29T04:16:18.708Z,1012.36
2022-11-29T04:17:18.678Z,1012.36
2022-11-29T04:18:18.624Z,1012.38
2022-11-29T04:19:18.677Z,1012.39
2022-11-29T04:20:18.637Z,1012.42
2022-11-29T04:21:18.601Z,1012.44
2022-11-29T04:22:18.602Z,1012.40
2022-11-29T04:23:18.572Z,1012.42
2022-11-29T04:24:18.582Z,1012.41
2022-11-29T04:25:18.550Z,1012.40
2022-11-29T04:26:18.522Z,1012.42
2022-11-29T04:27:18.533Z,1012.41
2022-11-29T04:28:18.522Z,1012.45
2022-11-29T04:29:18.541Z,1012.46
2022-11-29T04:30:18.472Z,1012.42
2022-11-29T04:31:18.568Z,1012.44
2022-11-29T04:32:18.474Z,1012.43
2022-11-29T04:33:18.469Z,1012.45
2022-11-29T04:34:18.453Z,1012.47
2022-11-29T04:35:18.421Z,1012.44
2022-11-29T04:36:18.420Z,1012.44
2022-11-29T04:37:18.391Z,1012.47
2022-11-29T04:38:18.398Z,1012.45
2022-11-29T04:39:18.377Z,1012.43
2022-11-29T04:40:18.395Z,1012.46
2022-11-29T04:41:18.366Z,1012.52
2022-11-29T04:42:18.320Z,1012.52
2022-11-29T04:43:18.337Z,1012.55
2022-11-29T04:44:18.299Z,1012.52
2022-11-29T04:45:18.289Z,1012.58
2022-11-29T04:46:18.365Z,1012.62
2022-11-29T04:47:18.295Z,1012.63
2022-11-29T04:48:18.282Z,1012.61
2022-11-29T04:49:18.254Z,1012.63
2022-11-29T04:50:18.246Z,1012.67
2022-11-29T04:51:18.243Z,1012.65
2022-11-29T04:52:18.215Z,1012.67
2022-11-29T04:53:18.197Z,1012.65
2022-11-29T04:54:18.185Z,1012.71
2022-11-29T04:55:24.994Z,1012.72
2022-11-29T04:56:19.149Z,1012.68
2022-11-29T04:57:18.193Z,1012.75
2022-11-29T04:58:18.114Z,1012.69
2022-11-29T04:59:18.149Z,1012.81
2022-11-29T05:00:18.088Z,1012.79
2022-11-29T05:01:18.162Z,1012.75
2022-11-29T05:02:18.122Z,1012.77
2022-11-29T05:03:18.081Z,1012.86
2022-11-29T05:04:18.067Z,1012.82
2022-11-29T05:05:18.045Z,1012.91
2022-11-29T05:06:18.042Z,1012.88
2022-11-29T05:07:18.100Z,1012.88
2022-11-29T05:08:18.041Z,1012.88
2022-11-29T05:09:18.008Z,1012.84
2022-11-29T05:10:17.979Z,1012.88
2022-11-29T05:11:22.082Z,1012.88
2022-11-29T05:12:18.934Z,1012.88
2022-11-29T05:13:17.952Z,1012.92
2022-11-29T05:14:17.934Z,1012.93
2022-11-29T05:15:17.954Z,1012.93
2022-11-29T05:16:17.935Z,1012.92
2022-11-29T05:17:17.893Z,1012.90
2022-11-29T05:18:17.899Z,1013.00
2022-11-29T05:19:17.892Z,1013.00
2022-11-29T05:20:17.859Z,1013.01
2022-11-29T05:21:17.833Z,1012.96
2022-11-29T05:22:17.838Z,1012.99
2022-11-29T05:23:17.834Z,1013.04
2022-11-29T05:24:17.858Z,1013.02
2022-11-29T05:25:17.774Z,1013.02
2022-11-29T05:26:17.776Z,1013.05
2022-11-29T05:27:17.777Z,1013.00
2022-11-29T05:28:17.751Z,1013.12
2022-11-29T05:29:17.751Z,1013.07
2022-11-29T05:30:17.701Z,1013.08
2022-11-29T05:31:17.758Z,1013.09
2022-11-29T05:32:17.690Z,1013.10
2022-11-29T05:33:17.725Z,1013.05
2022-11-29T05:34:17.717Z,1013.06
2022-11-29T05:35:17.678Z,1013.10
2022-11-29T05:36:17.647Z,1013.15
2022-11-29T05:37:17.656Z,1013.09
2022-11-29T05:38:17.599Z,1013.15
2022-11-29T05:39:17.642Z,1013.16
2022-11-29T05:40:17.615Z,1013.17
2022-11-29T05:41:17.626Z,1013.18
2022-11-29T05:42:17.607Z,1013.16
2022-11-29T05:43:17.585Z,1013.17
2022-11-29T05:44:17.555Z,1013.22
2022-11-29T05:45:17.554Z,1013.19
2022-11-29T05:46:17.555Z,1013.21
2022-11-29T05:47:17.547Z,1013.21
2022-11-29T05:48:17.495Z,1013.19
2022-11-29T05:49:17.536Z,1013.20
2022-11-29T05:50:17.473Z,1013.20
2022-11-29T05:51:17.479Z,1013.26
2022-11-29T05:52:17.449Z,1013.24
2022-11-29T05:53:17.447Z,1013.25
2022-11-29T05:54:17.427Z,1013.29
2022-11-29T05:55:17.434Z,1013.33
2022-11-29T05:56:17.375Z,1013.31
2022-11-29T05:57:17.423Z,1013.30
2022-11-29T05:58:17.356Z,1013.31
2022-11-29T05:59:17.414Z,1013.31
2022-11-29T06:00:17.314Z,1013.34
2022-11-29T06:01:17.345Z,1013.36
2022-11-29T06:02:17.359Z,1013.34
2022-11-29T06:03:17.358Z,1013.34
2022-11-29T06:04:17.306Z,1013.39
2022-11-29T06:05:17.292Z,1013.38
2022-11-29T06:06:17.284Z,1013.40
2022-11-29T06:07:17.315Z,1013.41
2022-11-29T06:08:17.263Z,1013.40
2022-11-29T06:09:17.252Z,1013.45
2022-11-29T06:10:17.186Z,1013.47
2022-11-29T06:11:17.217Z,1013.44
2022-11-29T06:12:20.997Z,1013.49
2022-11-29T06:13:17.174Z,1013.49
2022-11-29T06:14:17.164Z,1013.50
2022-11-29T06:15:17.202Z,1013.58
2022-11-29T06:16:17.191Z,1013.61
2022-11-29T06:17:17.116Z,1013.57
2022-11-29T06:18:17.113Z,1013.55
2022-11-29T06:19:17.094Z,1013.60
2022-11-29T06:20:17.084Z,1013.68
2022-11-29T06:21:17.089Z,1013.63
2022-11-29T06:22:17.035Z,1013.69
2022-11-29T06:23:17.042Z,1013.69
2022-11-29T06:24:19.472Z,1013.67
2022-11-29T06:25:18.039Z,1013.68
2022-11-29T06:26:17.040Z,1013.68
2022-11-29T06:27:16.981Z,1013.66
2022-11-29T06:28:17.021Z,1013.73
2022-11-29T06:29:16.961Z,1013.73
2022-11-29T06:30:16.957Z,1013.72
2022-11-29T06:31:16.997Z,1013.73
2022-11-29T06:32:16.928Z,1013.78
2022-11-29T06:33:16.949Z,1013.79
2022-11-29T06:34:16.916Z,1013.76
2022-11-29T06:35:16.926Z,1013.76
2022-11-29T06:36:16.872Z,1013.76
2022-11-29T06:37:16.876Z,1013.77
2022-11-29T06:38:16.860Z,1013.76
2022-11-29T06:39:16.895Z,1013.77
2022-11-29T06:40:16.804Z,1013.79
2022-11-29T06:41:16.830Z,1013.86
2022-11-29T06:42:16.809Z,1013.92
2022-11-29T06:43:16.806Z,1013.84
2022-11-29T06:44:16.795Z,1013.84
2022-11-29T06:45:16.748Z,1013.81
2022-11-29T06:46:16.817Z,1013.84
2022-11-29T06:47:16.727Z,1013.82
2022-11-29T06:48:16.690Z,1013.84
2022-11-29T06:49:16.763Z,1013.86
2022-11-29T06:50:16.678Z,1013.90
2022-11-29T06:51:16.719Z,1013.89
2022-11-29T06:52:16.693Z,1013.88
2022-11-29T06:53:16.684Z,1013.89
2022-11-29T06:54:16.666Z,1013.94
2022-11-29T06:55:16.655Z,1013.97
2022-11-29T06:56:16.643Z,1013.98
2022-11-29T06:57:16.626Z,1013.99
2022-11-29T06:58:16.602Z,1014.00
2022-11-29T06:59:16.601Z,1013.97
2022-11-29T07:00:16.566Z,1013.95
2022-11-29T07:01:16.602Z,1014.00
2022-11-29T07:02:16.628Z,1014.00
2022-11-29T07:03:16.555Z,1013.97
2022-11-29T07:04:16.513Z,1013.97
2022-11-29T07:05:16.543Z,1014.02
2022-11-29T07:06:16.474Z,1014.00
2022-11-29T07:07:16.532Z,1014.00
2022-11-29T07:08:16.445Z,1014.01
2022-11-29T07:09:16.476Z,1014.01
2022-11-29T07:10:16.462Z,1014.06
2022-11-29T07:11:16.449Z,1014.01
2022-11-29T07:12:16.421Z,1014.08
2022-11-29T07:13:16.403Z,1014.10
2022-11-29T07:14:16.389Z,1014.10
2022-11-29T07:15:16.416Z,1014.17
2022-11-29T07:16:16.385Z,1014.21
2022-11-29T07:17:16.372Z,1014.20
2022-11-29T07:18:16.319Z,1014.21
2022-11-29T07:19:16.349Z,1014.22
2022-11-29T07:20:16.328Z,1014.17
2022-11-29T07:21:16.319Z,1014.25
2022-11-29T07:22:16.301Z,1014.24
2022-11-29T07:23:16.298Z,1014.25
2022-11-29T07:24:16.243Z,1014.23
2022-11-29T07:25:16.337Z,1014.25
2022-11-29T07:26:16.247Z,1014.23
2022-11-29T07:27:16.246Z,1014.24
2022-11-29T07:28:16.199Z,1014.24
2022-11-29T07:29:16.189Z,1014.23
2022-11-29T07:30:16.206Z,1014.26
2022-11-29T07:31:16.211Z,1014.26
2022-11-29T07:32:16.140Z,1014.24
2022-11-29T07:33:16.165Z,1014.27
2022-11-29T07:34:16.136Z,1014.24
2022-11-29T07:35:16.150Z,1014.32
2022-11-29T07:36:16.091Z,1014.24
2022-11-29T07:37:16.116Z,1014.28
2022-11-29T07:38:16.069Z,1014.33
2022-11-29T07:39:16.086Z,1014.36
2022-11-29T07:40:16.086Z,1014.38
2022-11-29T07:41:16.041Z,1014.41
2022-11-29T07:42:16.044Z,1014.36
2022-11-29T07:43:16.019Z,1014.42
2022-11-29T07:44:15.988Z,1014.39
2022-11-29T07:45:16.024Z,1014.41
2022-11-29T07:46:16.066Z,1014.42
2022-11-29T07:47:15.966Z,1014.44
2022-11-29T07:48:15.938Z,1014.43
2022-11-29T07:49:15.963Z,1014.44
2022-11-29T07:50:15.951Z,1014.46
2022-11-29T07:51:15.938Z,1014.48
2022-11-29T07:52:15.886Z,1014.48
2022-11-29T07:53:15.917Z,1014.47
2022-11-29T07:54:15.859Z,1014.44
2022-11-29T07:55:18.882Z,1014.48
2022-11-29T07:56:15.835Z,1014.47
2022-11-29T07:57:15.835Z,1014.58
2022-11-29T07:58:15.835Z,1014.55
2022-11-29T07:59:15.850Z,1014.60
2022-11-29T08:00:15.831Z,1014.59
2022-11-29T08:01:15.842Z,1014.59
2022-11-29T08:02:15.873Z,1014.60
2022-11-29T08:03:15.755Z,1014.61
2022-11-29T08:04:15.754Z,1014.63
2022-11-29T08:05:15.734Z,1014.69
2022-11-29T08:06:15.757Z,1014.68
2022-11-29T08:07:15.750Z,1014.68
2022-11-29T08:08:15.730Z,1014.72
2022-11-29T08:09:15.671Z,1014.71
2022-11-29T08:10:15.682Z,1014.72
2022-11-29T08:11:15.670Z,1014.69
2022-11-29T08:12:15.643Z,1014.72
2022-11-29T08:13:15.622Z,1014.76
2022-11-29T08:14:15.656Z,1014.73
2022-11-29T08:15:15.621Z,1014.79
2022-11-29T08:16:15.700Z,1014.73
2022-11-29T08:17:15.573Z,1014.70
2022-11-29T08:18:15.571Z,1014.74
2022-11-29T08:19:15.567Z,1014.76
2022-11-29T08:20:15.579Z,1014.75
2022-11-29T08:21:15.513Z,1014.78
2022-11-29T08:22:15.545Z,1014.82
2022-11-29T08:23:15.493Z,1014.82
2022-11-29T08:24:15.498Z,1014.88
2022-11-29T08:25:15.511Z,1014.84
2022-11-29T08:26:15.500Z,1014.85
2022-11-29T08:27:15.467Z,1014.90
2022-11-29T08:28:15.448Z,1014.92
2022-11-29T08:29:15.442Z,1014.94
2022-11-29T08:30:15.448Z,1014.92
2022-11-29T08:31:15.431Z,1014.89
2022-11-29T08:32:15.407Z,1014.92
2022-11-29T08:33:15.380Z,1014.98
2022-11-29T08:34:15.369Z,1014.88
2022-11-29T08:35:15.376Z,1014.86
2022-11-29T08:36:15.368Z,1014.92
2022-11-29T08:37:15.345Z,1014.97
2022-11-29T08:38:15.308Z,1014.98
2022-11-29T08:39:15.321Z,1014.97
2022-11-29T08:40:15.337Z,1015.02
2022-11-29T08:41:15.288Z,1015.04
2022-11-29T08:42:15.292Z,1014.97
2022-11-29T08:43:15.236Z,1015.09
2022-11-29T08:44:15.265Z,1015.03
2022-11-29T08:45:15.314Z,1015.10
2022-11-29T08:46:18.534Z,1015.06
2022-11-29T08:47:15.245Z,1015.02
2022-11-29T08:48:15.225Z,1015.03
2022-11-29T08:49:15.212Z,1015.06
2022-11-29T08:50:15.197Z,1015.12
2022-11-29T08:51:23.009Z,1015.12
2022-11-29T08:52:15.142Z,1015.10
2022-11-29T08:53:15.112Z,1015.13
2022-11-29T08:54:15.111Z,1015.09
2022-11-29T08:55:15.128Z,1015.12
2022-11-29T08:57:04.583Z,1015.17
2022-11-29T08:57:39.769Z,1015.09
2022-11-29T08:58:16.091Z,1015.18
2022-11-29T08:59:15.042Z,1015.12
2022-11-29T09:00:15.039Z,1015.20
2022-11-29T09:01:15.046Z,1015.15
2022-11-29T09:02:15.056Z,1015.20
2022-11-29T09:03:14.980Z,1015.19
2022-11-29T09:04:15.025Z,1015.19
2022-11-29T09:05:14.999Z,1015.21
2022-11-29T09:06:14.996Z,1015.22
2022-11-29T09:07:15.018Z,1015.21
2022-11-29T09:08:14.954Z,1015.19
2022-11-29T09:09:14.952Z,1015.20
2022-11-29T09:10:14.928Z,1015.23
2022-11-29T09:11:14.916Z,1015.28
2022-11-29T09:12:14.914Z,1015.22
2022-11-29T09:13:14.870Z,1015.22
2022-11-29T09:14:14.886Z,1015.23
2022-11-29T09:15:14.868Z,1015.30
2022-11-29T09:16:14.964Z,1015.29
2022-11-29T09:17:14.811Z,1015.33
2022-11-29T09:18:14.810Z,1015.29
2022-11-29T09:19:14.828Z,1015.36
2022-11-29T09:20:14.783Z,1015.36
2022-11-29T09:21:14.769Z,1015.42
2022-11-29T09:22:14.750Z,1015.42
2022-11-29T09:23:14.729Z,1015.47
2022-11-29T09:24:14.766Z,1015.40
2022-11-29T09:25:14.697Z,1015.47
2022-11-29T09:26:14.770Z,1015.44
2022-11-29T09:27:14.677Z,1015.51
2022-11-29T09:28:14.698Z,1015.49
2022-11-29T09:29:14.735Z,1015.56
2022-11-29T09:30:16.997Z,1015.55
2022-11-29T09:31:15.718Z,1015.55
2022-11-29T09:32:14.653Z,1015.59
2022-11-29T09:33:14.628Z,1015.55
2022-11-29T09:34:14.642Z,1015.57
2022-11-29T09:35:14.607Z,1015.61
2022-11-29T09:36:14.620Z,1015.60
2022-11-29T09:37:14.554Z,1015.57
2022-11-29T09:38:14.594Z,1015.58
2022-11-29T09:39:14.567Z,1015.62
2022-11-29T09:40:14.564Z,1015.61
2022-11-29T09:41:14.541Z,1015.62
2022-11-29T09:42:14.523Z,1015.62
2022-11-29T09:43:14.511Z,1015.65
2022-11-29T09:44:14.473Z,1015.63
2022-11-29T09:45:14.451Z,1015.71
2022-11-29T09:46:14.507Z,1015.68
2022-11-29T09:47:14.434Z,1015.63
2022-11-29T09:48:14.449Z,1015.68
2022-11-29T09:49:14.394Z,1015.75
2022-11-29T09:50:14.411Z,1015.73
2022-11-29T09:51:14.379Z,1015.77
2022-11-29T09:52:14.419Z,1015.72
2022-11-29T09:53:14.371Z,1015.73
2022-11-29T09:54:14.350Z,1015.76
2022-11-29T09:55:14.312Z,1015.75
2022-11-29T09:56:14.342Z,1015.76
2022-11-29T09:57:14.300Z,1015.71
2022-11-29T09:58:14.291Z,1015.76
2022-11-29T09:59:14.262Z,1015.74
2022-11-29T10:00:14.296Z,1015.84
2022-11-29T10:01:14.331Z,1015.86
2022-11-29T10:02:19.726Z,1015.86
2022-11-29T10:03:15.219Z,1015.88
2022-11-29T10:04:14.245Z,1015.86
2022-11-29T10:05:14.200Z,1015.87
2022-11-29T10:06:14.240Z,1015.90
2022-11-29T10:07:14.179Z,1015.89
2022-11-29T10:08:14.177Z,1015.90
2022-11-29T10:09:14.145Z,1015.94
2022-11-29T10:10:14.156Z,1015.92
2022-11-29T10:11:14.134Z,1015.89
2022-11-29T10:12:14.136Z,1015.87
2022-11-29T10:13:14.125Z,1015.85
2022-11-29T10:14:14.108Z,1015.91
2022-11-29T10:15:14.094Z,1015.86
2022-11-29T10:16:14.208Z,1015.87
2022-11-29T10:17:14.036Z,1015.92
2022-11-29T10:18:14.073Z,1015.90
2022-11-29T10:19:14.007Z,1015.89
2022-11-29T10:20:14.051Z,1015.93
2022-11-29T10:21:14.023Z,1015.90
2022-11-29T10:22:13.986Z,1015.93
2022-11-29T10:23:13.968Z,1015.92
2022-11-29T10:24:13.979Z,1015.93
2022-11-29T10:25:13.962Z,1015.90
2022-11-29T10:26:13.945Z,1015.90
2022-11-29T10:27:13.947Z,1015.89
2022-11-29T10:28:13.923Z,1015.95
2022-11-29T10:29:13.930Z,1015.93
2022-11-29T10:30:13.912Z,1015.91
2022-11-29T10:31:13.950Z,1015.95
2022-11-29T10:32:13.861Z,1015.90
2022-11-29T10:33:13.840Z,1015.97
2022-11-29T10:34:13.834Z,1015.94
2022-11-29T10:35:13.831Z,1015.92
2022-11-29T10:36:13.823Z,1015.92
2022-11-29T10:37:13.960Z,1015.87
2022-11-29T10:38:30.169Z,1015.91
2022-11-29T10:39:14.911Z,1015.89
2022-11-29T10:40:13.786Z,1015.90
2022-11-29T10:41:13.742Z,1015.86
2022-11-29T10:42:13.733Z,1015.85
2022-11-29T10:43:13.729Z,1015.92
2022-11-29T10:44:13.718Z,1015.90
2022-11-29T10:45:13.685Z,1015.96
2022-11-29T10:46:13.760Z,1015.99
2022-11-29T10:47:13.683Z,1015.92
2022-11-29T10:48:13.660Z,1015.89
2022-11-29T10:49:13.658Z,1015.95
2022-11-29T10:50:13.632Z,1015.96
2022-11-29T10:51:13.655Z,1015.93
2022-11-29T10:52:13.612Z,1015.92
2022-11-29T10:53:13.592Z,1015.89
2022-11-29T10:54:13.620Z,1015.92
2022-11-29T10:55:13.618Z,1015.90
2022-11-29T10:56:13.578Z,1015.92
2022-11-29T10:57:13.558Z,1015.92
2022-11-29T10:58:13.560Z,1015.92
2022-11-29T10:59:13.572Z,1015.90
2022-11-29T11:00:13.606Z,1015.99
2022-11-29T11:01:13.531Z,1015.92
2022-11-29T11:02:13.469Z,1015.94
2022-11-29T11:03:13.486Z,1015.90
2022-11-29T11:04:13.469Z,1016.00
2022-11-29T11:05:13.468Z,1015.90
2022-11-29T11:06:13.460Z,1015.91
2022-11-29T11:07:13.399Z,1015.91
2022-11-29T11:08:13.402Z,1015.92
2022-11-29T11:09:13.405Z,1015.95
2022-11-29T11:10:13.417Z,1015.91
2022-11-29T11:11:13.378Z,1015.88
2022-11-29T11:12:13.437Z,1015.95
2022-11-29T11:13:13.338Z,1015.91
2022-11-29T11:14:13.403Z,1015.87
2022-11-29T11:15:13.291Z,1015.88
2022-11-29T11:16:13.336Z,1015.89
2022-11-29T11:17:13.327Z,1015.87
2022-11-29T11:18:13.293Z,1015.90
2022-11-29T11:19:13.295Z,1015.86
2022-11-29T11:20:13.300Z,1015.98
2022-11-29T11:21:13.219Z,1015.99
2022-11-29T11:22:13.250Z,1015.82
2022-11-29T11:23:13.207Z,1015.86
2022-11-29T11:24:13.242Z,1015.85
2022-11-29T11:25:13.166Z,1015.86
2022-11-29T11:26:13.192Z,1015.88
2022-11-29T11:27:13.193Z,1015.86
2022-11-29T11:28:13.147Z,1015.83
2022-11-29T11:29:13.164Z,1015.87
2022-11-29T11:30:13.131Z,1015.86
2022-11-29T11:31:13.176Z,1015.86
2022-11-29T11:32:13.094Z,1015.89
2022-11-29T11:33:13.100Z,1015.85
2022-11-29T11:34:13.097Z,1015.86
2022-11-29T11:35:18.309Z,1015.87
2022-11-29T11:36:14.047Z,1015.84
2022-11-29T11:37:13.033Z,1015.85
2022-11-29T11:38:13.033Z,1015.84
2022-11-29T11:39:13.035Z,1015.84
2022-11-29T11:40:13.031Z,1015.80
2022-11-29T11:41:12.999Z,1015.84
2022-11-29T11:42:12.962Z,1015.78
2022-11-29T11:43:12.933Z,1015.86
2022-11-29T11:44:15.342Z,1015.86
2022-11-29T11:45:13.948Z,1015.87
2022-11-29T11:46:17.803Z,1015.88
2022-11-29T11:47:13.920Z,1015.84
2022-11-29T11:48:12.897Z,1015.92
2022-11-29T11:49:12.955Z,1015.91
2022-11-29T11:50:13.132Z,1015.91
2022-11-29T11:51:12.840Z,1015.97
2022-11-29T11:52:12.833Z,1015.94
2022-11-29T11:53:12.812Z,1015.93
2022-11-29T11:54:12.827Z,1015.95
2022-11-29T11:55:12.818Z,1016.00
2022-11-29T11:56:12.793Z,1015.93
2022-11-29T11:57:12.796Z,1015.95
2022-11-29T11:58:12.811Z,1015.91
2022-11-29T11:59:12.777Z,1015.99
2022-11-29T12:00:12.799Z,1015.94
2022-11-29T12:01:12.742Z,1016.00
2022-11-29T12:02:12.762Z,1016.02
2022-11-29T12:03:12.791Z,1015.98
2022-11-29T12:04:12.702Z,1016.03
2022-11-29T12:05:12.663Z,1016.02